sensor_id;sensor_type;location;lat;lon;timestamp;pressure;altitude;pressure_sealevel;temperature;humidity
44198;BME280;30157;55.512;37.764;2022-11-15T00:00:55;100643.84;;;-0.34;51.36
44198;BME280;30157;55.512;37.764;2022-11-15T00:03:39;100653.50;;;-0.28;51.40
44198;BME280;30157;55.512;37.764;2022-11-15T00:06:23;100656.69;;;-0.32;51.95
44198;BME280;30157;55.512;37.764;2022-11-15T00:09:07;100652.41;;;-0.33;52.30
44198;BME280;30157;55.512;37.764;2022-11-15T00:11:52;100631.75;;;-0.38;52.70
44198;BME280;30157;55.512;37.764;2022-11-15T00:14:36;100645.47;;;-0.36;52.75
44198;BME280;30157;55.512;37.764;2022-11-15T00:17:20;100640.19;;;-0.39;52.94
44198;BME280;30157;55.512;37.764;2022-11-15T00:20:05;100648.72;;;-0.39;53.18
44198;BME280;30157;55.512;37.764;2022-11-15T00:22:49;100623.94;;;-0.58;52.93
44198;BME280;30157;55.512;37.764;2022-11-15T00:25:34;100642.66;;;-0.41;52.82
44198;BME280;30157;55.512;37.764;2022-11-15T00:28:18;100567.50;;;-0.80;53.07
44198;BME280;30157;55.512;37.764;2022-11-15T00:31:08;100642.84;;;-0.38;53.26
44198;BME280;30157;55.512;37.764;2022-11-15T00:33:52;100587.47;;;-0.72;53.12
44198;BME280;30157;55.512;37.764;2022-11-15T00:36:36;100634.84;;;-0.44;53.27
44198;BME280;30157;55.512;37.764;2022-11-15T00:39:21;100640.03;;;-0.42;53.42
44198;BME280;30157;55.512;37.764;2022-11-15T00:42:05;100630.63;;;-0.43;53.29
44198;BME280;30157;55.512;37.764;2022-11-15T00:44:49;100628.00;;;-0.45;53.36
44198;BME280;30157;55.512;37.764;2022-11-15T00:47:33;100593.72;;;-0.66;53.06
44198;BME280;30157;55.512;37.764;2022-11-15T00:50:18;100628.06;;;-0.43;53.10
44198;BME280;30157;55.512;37.764;2022-11-15T00:53:02;100607.19;;;-0.53;52.50
44198;BME280;30157;55.512;37.764;2022-11-15T00:55:46;100564.22;;;-0.78;52.19
44198;BME280;30157;55.512;37.764;2022-11-15T00:58:31;100545.97;;;-0.86;52.42
44198;BME280;30157;55.512;37.764;2022-11-15T01:01:15;100543.34;;;-0.87;52.86
44198;BME280;30157;55.512;37.764;2022-11-15T01:03:59;100500.06;;;-1.19;53.13
44198;BME280;30157;55.512;37.764;2022-11-15T01:06:43;100531.31;;;-0.90;53.23
44198;BME280;30157;55.512;37.764;2022-11-15T01:09:28;100581.09;;;-0.63;52.93
44198;BME280;30157;55.512;37.764;2022-11-15T01:12:12;100609.00;;;-0.50;52.98
44198;BME280;30157;55.512;37.764;2022-11-15T01:14:56;100607.44;;;-0.48;53.43
44198;BME280;30157;55.512;37.764;2022-11-15T01:17:40;100601.53;;;-0.47;53.32
44198;BME280;30157;55.512;37.764;2022-11-15T01:20:24;100604.88;;;-0.48;52.85
44198;BME280;30157;55.512;37.764;2022-11-15T01:23:09;100602.41;;;-0.46;53.01
44198;BME280;30157;55.512;37.764;2022-11-15T01:25:58;100602.06;;;-0.53;53.12
44198;BME280;30157;55.512;37.764;2022-11-15T01:28:43;100596.81;;;-0.56;53.11
44198;BME280;30157;55.512;37.764;2022-11-15T01:31:27;100604.56;;;-0.54;52.96
44198;BME280;30157;55.512;37.764;2022-11-15T01:34:11;100593.56;;;-0.53;52.86
44198;BME280;30157;55.512;37.764;2022-11-15T01:36:55;100523.69;;;-0.90;53.13
44198;BME280;30157;55.512;37.764;2022-11-15T01:39:40;100585.13;;;-0.52;53.44
44198;BME280;30157;55.512;37.764;2022-11-15T01:42:24;100584.00;;;-0.57;53.33
44198;BME280;30157;55.512;37.764;2022-11-15T01:45:13;100516.41;;;-0.98;53.01
44198;BME280;30157;55.512;37.764;2022-11-15T01:47:58;100585.44;;;-0.62;53.52
44198;BME280;30157;55.512;37.764;2022-11-15T01:50:43;100575.06;;;-0.65;53.56
44198;BME280;30157;55.512;37.764;2022-11-15T01:53:28;100569.81;;;-0.69;53.55
44198;BME280;30157;55.512;37.764;2022-11-15T01:56:24;100573.94;;;-0.71;53.62
44198;BME280;30157;55.512;37.764;2022-11-15T01:59:09;100579.03;;;-0.71;53.67
44198;BME280;30157;55.512;37.764;2022-11-15T02:01:55;100540.47;;;-0.93;53.48
44198;BME280;30157;55.512;37.764;2022-11-15T02:04:44;100572.38;;;-0.69;53.66
44198;BME280;30157;55.512;37.764;2022-11-15T02:07:31;100574.09;;;-0.68;53.66
44198;BME280;30157;55.512;37.764;2022-11-15T02:10:20;100580.09;;;-0.67;53.41
44198;BME280;30157;55.512;37.764;2022-11-15T02:13:05;100577.28;;;-0.72;52.94
44198;BME280;30157;55.512;37.764;2022-11-15T02:18:49;100571.00;;;-0.78;52.93
44198;BME280;30157;55.512;37.764;2022-11-15T02:21:43;100573.78;;;-0.90;53.03
44198;BME280;30157;55.512;37.764;2022-11-15T02:34:00;100561.84;;;-0.91;53.83
44198;BME280;30157;55.512;37.764;2022-11-15T02:40:16;100544.28;;;-1.02;54.17
44198;BME280;30157;55.512;37.764;2022-11-15T02:43:10;100497.84;;;-1.29;53.96
44198;BME280;30157;55.512;37.764;2022-11-15T02:46:35;100556.25;;;-1.00;53.90
44198;BME280;30157;55.512;37.764;2022-11-15T02:49:52;100548.31;;;-1.05;54.30
44198;BME280;30157;55.512;37.764;2022-11-15T02:52:38;100541.31;;;-1.09;54.14
44198;BME280;30157;55.512;37.764;2022-11-15T02:55:34;100555.97;;;-1.05;54.41
44198;BME280;30157;55.512;37.764;2022-11-15T03:04:39;100551.94;;;-1.02;54.83
44198;BME280;30157;55.512;37.764;2022-11-15T03:07:35;100370.44;;;-2.10;54.69
44198;BME280;30157;55.512;37.764;2022-11-15T03:10:57;100546.84;;;-1.02;55.22
44198;BME280;30157;55.512;37.764;2022-11-15T03:14:02;100537.50;;;-1.01;55.27
44198;BME280;30157;55.512;37.764;2022-11-15T03:16:59;100532.41;;;-1.01;55.22
44198;BME280;30157;55.512;37.764;2022-11-15T03:19:47;100535.59;;;-1.05;55.11
44198;BME280;30157;55.512;37.764;2022-11-15T03:22:36;100482.59;;;-1.44;55.13
44198;BME280;30157;55.512;37.764;2022-11-15T03:25:24;100536.28;;;-1.08;55.47
44198;BME280;30157;55.512;37.764;2022-11-15T03:28:13;100530.09;;;-1.13;55.21
44198;BME280;30157;55.512;37.764;2022-11-15T03:31:01;100531.13;;;-1.09;55.16
44198;BME280;30157;55.512;37.764;2022-11-15T03:34:07;100511.94;;;-1.19;55.70
44198;BME280;30157;55.512;37.764;2022-11-15T03:36:55;100521.56;;;-1.13;56.01
44198;BME280;30157;55.512;37.764;2022-11-15T03:39:40;100521.34;;;-1.18;55.87
44198;BME280;30157;55.512;37.764;2022-11-15T03:42:28;100520.63;;;-1.15;56.23
44198;BME280;30157;55.512;37.764;2022-11-15T03:45:19;100518.63;;;-1.21;56.21
44198;BME280;30157;55.512;37.764;2022-11-15T03:48:12;100490.56;;;-1.38;56.06
44198;BME280;30157;55.512;37.764;2022-11-15T03:50:58;100529.22;;;-1.13;56.20
44198;BME280;30157;55.512;37.764;2022-11-15T03:53:42;100532.66;;;-1.13;56.32
44198;BME280;30157;55.512;37.764;2022-11-15T03:56:26;100534.38;;;-1.12;56.40
44198;BME280;30157;55.512;37.764;2022-11-15T03:59:10;100530.81;;;-1.15;56.22
44198;BME280;30157;55.512;37.764;2022-11-15T04:01:55;100533.91;;;-1.21;56.53
44198;BME280;30157;55.512;37.764;2022-11-15T04:04:39;100466.47;;;-1.59;56.68
44198;BME280;30157;55.512;37.764;2022-11-15T04:07:24;100476.47;;;-1.47;56.60
44198;BME280;30157;55.512;37.764;2022-11-15T04:10:10;100538.75;;;-1.09;56.23
44198;BME280;30157;55.512;37.764;2022-11-15T04:12:54;100513.84;;;-1.15;55.35
44198;BME280;30157;55.512;37.764;2022-11-15T04:15:38;100520.63;;;-1.15;55.36
44198;BME280;30157;55.512;37.764;2022-11-15T04:18:22;100474.56;;;-1.35;55.39
44198;BME280;30157;55.512;37.764;2022-11-15T04:21:08;100506.28;;;-1.13;55.76
44198;BME280;30157;55.512;37.764;2022-11-15T04:24:11;100463.03;;;-1.28;55.22
44198;BME280;30157;55.512;37.764;2022-11-15T04:26:58;100472.38;;;-1.29;55.51
44198;BME280;30157;55.512;37.764;2022-11-15T04:29:42;100532.59;;;-0.98;55.21
44198;BME280;30157;55.512;37.764;2022-11-15T04:32:29;100523.09;;;-1.00;55.08
44198;BME280;30157;55.512;37.764;2022-11-15T04:35:13;100483.03;;;-1.20;54.85
44198;BME280;30157;55.512;37.764;2022-11-15T04:37:58;100520.72;;;-0.97;54.88
44198;BME280;30157;55.512;37.764;2022-11-15T04:40:42;100523.19;;;-0.99;54.70
44198;BME280;30157;55.512;37.764;2022-11-15T04:43:27;100493.72;;;-1.10;54.37
44198;BME280;30157;55.512;37.764;2022-11-15T04:46:11;100514.69;;;-0.99;54.33
44198;BME280;30157;55.512;37.764;2022-11-15T04:48:55;100507.66;;;-1.04;53.82
44198;BME280;30157;55.512;37.764;2022-11-15T04:51:39;100496.44;;;-1.07;53.93
44198;BME280;30157;55.512;37.764;2022-11-15T04:54:23;100511.88;;;-1.04;53.69
44198;BME280;30157;55.512;37.764;2022-11-15T04:57:08;100489.34;;;-1.13;53.92
44198;BME280;30157;55.512;37.764;2022-11-15T04:59:52;100498.34;;;-1.03;54.52
44198;BME280;30157;55.512;37.764;2022-11-15T05:02:36;100384.28;;;-1.73;54.23
44198;BME280;30157;55.512;37.764;2022-11-15T05:05:40;100490.06;;;-1.15;54.62
44198;BME280;30157;55.512;37.764;2022-11-15T05:08:24;100470.69;;;-1.28;54.40
44198;BME280;30157;55.512;37.764;2022-11-15T05:11:08;100490.59;;;-1.21;54.48
44198;BME280;30157;55.512;37.764;2022-11-15T05:13:53;100471.47;;;-1.29;54.50
44198;BME280;30157;55.512;37.764;2022-11-15T05:16:37;100480.00;;;-1.29;54.34
44198;BME280;30157;55.512;37.764;2022-11-15T05:19:22;100496.41;;;-1.24;54.20
44198;BME280;30157;55.512;37.764;2022-11-15T05:22:06;100489.47;;;-1.26;54.10
44198;BME280;30157;55.512;37.764;2022-11-15T05:24:51;100491.53;;;-1.36;53.83
44198;BME280;30157;55.512;37.764;2022-11-15T05:27:35;100493.19;;;-1.36;54.43
44198;BME280;30157;55.512;37.764;2022-11-15T05:30:19;100462.44;;;-1.56;53.78
44198;BME280;30157;55.512;37.764;2022-11-15T05:33:04;100496.19;;;-1.43;54.52
44198;BME280;30157;55.512;37.764;2022-11-15T05:35:59;100471.13;;;-1.52;54.65
44198;BME280;30157;55.512;37.764;2022-11-15T05:38:45;100494.44;;;-1.44;54.03
44198;BME280;30157;55.512;37.764;2022-11-15T05:41:44;100428.09;;;-1.79;54.45
44198;BME280;30157;55.512;37.764;2022-11-15T05:44:30;100481.63;;;-1.46;54.76
44198;BME280;30157;55.512;37.764;2022-11-15T05:47:19;100493.41;;;-1.48;54.64
44198;BME280;30157;55.512;37.764;2022-11-15T05:50:05;100478.84;;;-1.50;54.71
44198;BME280;30157;55.512;37.764;2022-11-15T05:52:50;100443.88;;;-1.70;54.57
44198;BME280;30157;55.512;37.764;2022-11-15T05:55:37;100467.72;;;-1.67;55.08
44198;BME280;30157;55.512;37.764;2022-11-15T05:58:22;100401.38;;;-2.02;54.59
44198;BME280;30157;55.512;37.764;2022-11-15T06:01:06;100470.16;;;-1.54;54.71
44198;BME280;30157;55.512;37.764;2022-11-15T06:03:50;100461.25;;;-1.46;54.74
44198;BME280;30157;55.512;37.764;2022-11-15T06:06:35;100427.66;;;-1.55;54.36
44198;BME280;30157;55.512;37.764;2022-11-15T06:09:19;100465.66;;;-1.27;54.31
44198;BME280;30157;55.512;37.764;2022-11-15T06:12:03;100399.66;;;-1.55;54.07
44198;BME280;30157;55.512;37.764;2022-11-15T06:14:47;100462.25;;;-1.11;53.56
44198;BME280;30157;55.512;37.764;2022-11-15T06:17:31;100463.06;;;-0.95;53.61
44198;BME280;30157;55.512;37.764;2022-11-15T06:20:16;100436.13;;;-1.07;53.41
44198;BME280;30157;55.512;37.764;2022-11-15T06:23:02;100461.25;;;-0.98;53.26
44198;BME280;30157;55.512;37.764;2022-11-15T06:25:46;100447.53;;;-1.16;52.96
44198;BME280;30157;55.512;37.764;2022-11-15T06:28:32;100464.94;;;-1.08;53.75
44198;BME280;30157;55.512;37.764;2022-11-15T06:31:16;100383.09;;;-1.63;53.60
44198;BME280;30157;55.512;37.764;2022-11-15T06:34:00;100395.69;;;-1.50;53.52
44198;BME280;30157;55.512;37.764;2022-11-15T06:36:45;100394.50;;;-1.40;53.42
44198;BME280;30157;55.512;37.764;2022-11-15T06:39:29;100440.59;;;-1.03;53.79
44198;BME280;30157;55.512;37.764;2022-11-15T06:42:13;100370.00;;;-1.38;53.84
44198;BME280;30157;55.512;37.764;2022-11-15T06:44:58;100452.16;;;-0.93;54.55
44198;BME280;30157;55.512;37.764;2022-11-15T06:47:45;100439.88;;;-1.00;53.84
44198;BME280;30157;55.512;37.764;2022-11-15T06:50:30;100444.81;;;-1.03;54.12
44198;BME280;30157;55.512;37.764;2022-11-15T06:53:15;100390.22;;;-1.41;53.86
44198;BME280;30157;55.512;37.764;2022-11-15T06:56:03;100439.25;;;-1.12;53.83
44198;BME280;30157;55.512;37.764;2022-11-15T06:58:48;100379.78;;;-1.46;53.74
44198;BME280;30157;55.512;37.764;2022-11-15T07:01:32;100444.66;;;-1.23;53.93
44198;BME280;30157;55.512;37.764;2022-11-15T07:04:16;100392.66;;;-1.43;54.31
44198;BME280;30157;55.512;37.764;2022-11-15T07:07:00;100424.38;;;-1.21;54.22
44198;BME280;30157;55.512;37.764;2022-11-15T07:09:45;100436.22;;;-1.05;54.02
44198;BME280;30157;55.512;37.764;2022-11-15T07:12:29;100425.00;;;-1.09;53.92
44198;BME280;30157;55.512;37.764;2022-11-15T07:15:15;100422.22;;;-1.13;54.13
44198;BME280;30157;55.512;37.764;2022-11-15T07:18:02;100369.59;;;-1.46;53.79
44198;BME280;30157;55.512;37.764;2022-11-15T07:20:47;100397.16;;;-1.22;53.97
44198;BME280;30157;55.512;37.764;2022-11-15T07:23:31;100432.50;;;-0.95;54.20
44198;BME280;30157;55.512;37.764;2022-11-15T07:26:15;100358.69;;;-1.27;53.24
44198;BME280;30157;55.512;37.764;2022-11-15T07:28:59;100369.34;;;-1.17;53.29
44198;BME280;30157;55.512;37.764;2022-11-15T07:31:43;100407.91;;;-0.77;53.10
44198;BME280;30157;55.512;37.764;2022-11-15T07:34:27;100390.66;;;-0.82;53.09
44198;BME280;30157;55.512;37.764;2022-11-15T07:37:12;100414.47;;;-0.47;52.65
44198;BME280;30157;55.512;37.764;2022-11-15T07:39:56;100413.03;;;-0.42;52.26
44198;BME280;30157;55.512;37.764;2022-11-15T07:42:40;100371.09;;;-0.65;52.67
44198;BME280;30157;55.512;37.764;2022-11-15T07:45:44;100399.66;;;-0.73;51.65
44198;BME280;30157;55.512;37.764;2022-11-15T07:48:30;100404.94;;;-0.86;53.21
44198;BME280;30157;55.512;37.764;2022-11-15T07:51:16;100401.56;;;-0.85;53.33
44198;BME280;30157;55.512;37.764;2022-11-15T07:54:00;100362.72;;;-0.97;52.72
44198;BME280;30157;55.512;37.764;2022-11-15T07:56:45;100386.25;;;-0.85;52.72
44198;BME280;30157;55.512;37.764;2022-11-15T07:59:29;100386.25;;;-0.85;53.10
44198;BME280;30157;55.512;37.764;2022-11-15T08:02:13;100350.03;;;-0.96;53.27
44198;BME280;30157;55.512;37.764;2022-11-15T08:04:57;100377.31;;;-0.77;53.38
44198;BME280;30157;55.512;37.764;2022-11-15T08:07:43;100370.44;;;-0.79;53.04
44198;BME280;30157;55.512;37.764;2022-11-15T08:10:28;100311.00;;;-1.29;53.75
44198;BME280;30157;55.512;37.764;2022-11-15T08:13:12;100261.81;;;-1.63;53.71
44198;BME280;30157;55.512;37.764;2022-11-15T08:15:59;100367.53;;;-1.04;53.89
44198;BME280;30157;55.512;37.764;2022-11-15T08:18:43;100368.88;;;-1.10;54.45
44198;BME280;30157;55.512;37.764;2022-11-15T08:21:27;100374.16;;;-0.89;54.28
44198;BME280;30157;55.512;37.764;2022-11-15T08:24:11;100301.09;;;-1.07;53.56
44198;BME280;30157;55.512;37.764;2022-11-15T08:26:56;100364.69;;;-0.57;53.37
44198;BME280;30157;55.512;37.764;2022-11-15T08:29:44;100356.91;;;-0.60;53.32
44198;BME280;30157;55.512;37.764;2022-11-15T08:32:31;100303.41;;;-0.77;53.46
44198;BME280;30157;55.512;37.764;2022-11-15T08:35:16;100351.22;;;-0.37;53.17
44198;BME280;30157;55.512;37.764;2022-11-15T08:38:00;100339.34;;;-0.36;53.07
44198;BME280;30157;55.512;37.764;2022-11-15T08:40:45;100321.00;;;-0.47;53.01
44198;BME280;30157;55.512;37.764;2022-11-15T08:43:29;100344.66;;;-0.31;52.57
44198;BME280;30157;55.512;37.764;2022-11-15T08:46:13;100322.72;;;-0.64;53.13
44198;BME280;30157;55.512;37.764;2022-11-15T08:48:58;100275.09;;;-0.83;52.34
44198;BME280;30157;55.512;37.764;2022-11-15T08:51:42;100336.06;;;-0.52;52.65
44198;BME280;30157;55.512;37.764;2022-11-15T08:54:26;100305.53;;;-0.86;53.00
44198;BME280;30157;55.512;37.764;2022-11-15T08:57:11;100300.44;;;-1.03;53.31
44198;BME280;30157;55.512;37.764;2022-11-15T08:59:56;100315.09;;;-0.98;53.60
44198;BME280;30157;55.512;37.764;2022-11-15T09:02:40;100329.41;;;-0.84;53.65
44198;BME280;30157;55.512;37.764;2022-11-15T09:05:25;100326.91;;;-0.82;53.95
44198;BME280;30157;55.512;37.764;2022-11-15T09:08:10;100270.16;;;-1.14;53.65
44198;BME280;30157;55.512;37.764;2022-11-15T09:10:57;100310.84;;;-0.81;53.65
44198;BME280;30157;55.512;37.764;2022-11-15T09:13:41;100312.41;;;-0.83;54.05
44198;BME280;30157;55.512;37.764;2022-11-15T09:16:25;100257.66;;;-1.10;53.73
44198;BME280;30157;55.512;37.764;2022-11-15T09:19:09;100307.50;;;-0.62;53.80
44198;BME280;30157;55.512;37.764;2022-11-15T09:21:54;100326.97;;;-0.64;53.59
44198;BME280;30157;55.512;37.764;2022-11-15T09:24:37;100305.31;;;-0.55;54.16
44198;BME280;30157;55.512;37.764;2022-11-15T09:27:22;100151.06;;;-1.55;53.54
44198;BME280;30157;55.512;37.764;2022-11-15T09:30:06;100244.06;;;-0.92;53.75
44198;BME280;30157;55.512;37.764;2022-11-15T09:32:51;100301.38;;;-0.84;54.01
44198;BME280;30157;55.512;37.764;2022-11-15T09:35:35;100242.34;;;-1.10;54.63
44198;BME280;30157;55.512;37.764;2022-11-15T09:38:20;100295.53;;;-0.63;54.18
44198;BME280;30157;55.512;37.764;2022-11-15T09:50:49;100275.34;;;-0.95;55.08
44198;BME280;30157;55.512;37.764;2022-11-15T09:53:36;100273.84;;;-0.91;54.32
44198;BME280;30157;55.512;37.764;2022-11-15T09:56:28;100270.78;;;-0.84;54.29
44198;BME280;30157;55.512;37.764;2022-11-15T10:04:27;100242.00;;;-0.99;55.07
44198;BME280;30157;55.512;37.764;2022-11-15T10:07:14;100205.38;;;-1.20;54.76
44198;BME280;30157;55.512;37.764;2022-11-15T10:09:47;100257.00;;;-0.88;54.85
44198;BME280;30157;55.512;37.764;2022-11-15T10:12:16;100196.31;;;-1.31;55.35
44198;BME280;30157;55.512;37.764;2022-11-15T10:14:43;100271.44;;;-0.88;55.30
44198;BME280;30157;55.512;37.764;2022-11-15T10:20:44;100262.78;;;-0.74;54.92
44198;BME280;30157;55.512;37.764;2022-11-15T10:23:14;100255.13;;;-0.74;55.15
44198;BME280;30157;55.512;37.764;2022-11-15T10:25:41;100244.19;;;-0.89;55.02
44198;BME280;30157;55.512;37.764;2022-11-15T10:28:15;100241.16;;;-0.82;55.08
44198;BME280;30157;55.512;37.764;2022-11-15T10:30:50;100231.38;;;-0.91;54.68
44198;BME280;30157;55.512;37.764;2022-11-15T10:33:37;100196.16;;;-0.99;54.99
44198;BME280;30157;55.512;37.764;2022-11-15T10:41:19;100169.75;;;-1.36;55.22
44198;BME280;30157;55.512;37.764;2022-11-15T10:44:02;100218.06;;;-1.03;55.16
44198;BME280;30157;55.512;37.764;2022-11-15T10:46:28;100205.25;;;-1.05;55.46
44198;BME280;30157;55.512;37.764;2022-11-15T10:54:53;100215.88;;;-0.77;54.92
44198;BME280;30157;55.512;37.764;2022-11-15T10:57:22;100190.94;;;-1.01;55.16
44198;BME280;30157;55.512;37.764;2022-11-15T10:59:51;100211.56;;;-0.96;55.38
44198;BME280;30157;55.512;37.764;2022-11-15T11:02:30;100128.59;;;-1.45;55.87
44198;BME280;30157;55.512;37.764;2022-11-15T11:04:57;100185.22;;;-1.15;55.78
44198;BME280;30157;55.512;37.764;2022-11-15T11:07:27;100195.13;;;-1.03;55.80
44198;BME280;30157;55.512;37.764;2022-11-15T11:10:19;100186.03;;;-0.98;55.39
44198;BME280;30157;55.512;37.764;2022-11-15T11:12:45;100185.78;;;-1.03;55.48
44198;BME280;30157;55.512;37.764;2022-11-15T11:15:13;100178.38;;;-0.98;55.65
44198;BME280;30157;55.512;37.764;2022-11-15T11:18:02;100126.84;;;-1.28;55.26
44198;BME280;30157;55.512;37.764;2022-11-15T11:20:40;100180.56;;;-1.06;55.78
44198;BME280;30157;55.512;37.764;2022-11-15T11:37:14;100175.81;;;-0.80;55.42
44198;BME280;30157;55.512;37.764;2022-11-15T11:42:13;100116.44;;;-1.33;55.27
44198;BME280;30157;55.512;37.764;2022-11-15T11:47:32;100172.41;;;-0.98;56.32
44198;BME280;30157;55.512;37.764;2022-11-15T11:50:18;100179.38;;;-0.94;56.45
44198;BME280;30157;55.512;37.764;2022-11-15T11:53:13;100170.66;;;-0.99;56.45
44198;BME280;30157;55.512;37.764;2022-11-15T11:55:44;100167.88;;;-1.04;56.38
44198;BME280;30157;55.512;37.764;2022-11-15T11:58:17;100145.41;;;-1.13;56.97
44198;BME280;30157;55.512;37.764;2022-11-15T12:03:59;100157.69;;;-1.04;56.77
44198;BME280;30157;55.512;37.764;2022-11-15T12:06:50;100090.97;;;-1.33;57.16
44198;BME280;30157;55.512;37.764;2022-11-15T12:12:00;100138.78;;;-1.27;59.16
44198;BME280;30157;55.512;37.764;2022-11-15T12:17:13;100085.09;;;-1.84;61.28
44198;BME280;30157;55.512;37.764;2022-11-15T12:19:40;100137.09;;;-1.63;62.39
44198;BME280;30157;55.512;37.764;2022-11-15T12:25:03;100118.63;;;-1.75;63.27
44198;BME280;30157;55.512;37.764;2022-11-15T12:30:20;100137.69;;;-1.67;64.12
44198;BME280;30157;55.512;37.764;2022-11-15T12:32:58;100135.38;;;-1.80;65.03
44198;BME280;30157;55.512;37.764;2022-11-15T12:35:40;100082.69;;;-2.16;65.54
44198;BME280;30157;55.512;37.764;2022-11-15T12:41:16;100118.22;;;-2.17;69.42
44198;BME280;30157;55.512;37.764;2022-11-15T12:43:46;100076.69;;;-2.51;70.10
44198;BME280;30157;55.512;37.764;2022-11-15T12:48:55;100130.47;;;-2.10;69.49
44198;BME280;30157;55.512;37.764;2022-11-15T12:52:02;100114.25;;;-2.12;70.23
44198;BME280;30157;55.512;37.764;2022-11-15T12:59:54;100094.13;;;-2.08;72.49
44198;BME280;30157;55.512;37.764;2022-11-15T13:02:25;99975.38;;;-2.94;73.50
44198;BME280;30157;55.512;37.764;2022-11-15T13:04:55;100092.31;;;-2.10;71.79
44198;BME280;30157;55.512;37.764;2022-11-15T13:10:32;100090.59;;;-2.44;75.93
44198;BME280;30157;55.512;37.764;2022-11-15T13:13:08;100083.19;;;-2.40;75.37
44198;BME280;30157;55.512;37.764;2022-11-15T13:15:45;100081.13;;;-2.47;74.85
44198;BME280;30157;55.512;37.764;2022-11-15T13:18:31;100084.16;;;-2.38;75.11
44198;BME280;30157;55.512;37.764;2022-11-15T13:20:58;100072.69;;;-2.29;74.81
44198;BME280;30157;55.512;37.764;2022-11-15T13:23:24;100074.84;;;-2.21;74.16
44198;BME280;30157;55.512;37.764;2022-11-15T13:26:09;100076.75;;;-2.16;74.56
44198;BME280;30157;55.512;37.764;2022-11-15T13:33:42;100076.34;;;-2.24;75.59
44198;BME280;30157;55.512;37.764;2022-11-15T13:36:28;100066.91;;;-2.27;75.65
44198;BME280;30157;55.512;37.764;2022-11-15T13:38:56;100067.16;;;-2.22;75.75
44198;BME280;30157;55.512;37.764;2022-11-15T13:41:29;100053.78;;;-2.34;76.06
44198;BME280;30157;55.512;37.764;2022-11-15T13:43:56;99934.88;;;-2.91;75.51
44198;BME280;30157;55.512;37.764;2022-11-15T13:46:30;100004.25;;;-2.59;76.34
44198;BME280;30157;55.512;37.764;2022-11-15T13:49:00;100041.72;;;-2.39;76.51
44198;BME280;30157;55.512;37.764;2022-11-15T13:51:48;100053.16;;;-2.30;76.65
44198;BME280;30157;55.512;37.764;2022-11-15T13:54:25;100047.59;;;-2.23;76.63
44198;BME280;30157;55.512;37.764;2022-11-15T13:59:56;100035.69;;;-2.41;77.39
44198;BME280;30157;55.512;37.764;2022-11-15T14:02:27;100045.38;;;-2.33;77.76
44198;BME280;30157;55.512;37.764;2022-11-15T14:05:03;100033.06;;;-2.26;77.56
44198;BME280;30157;55.512;37.764;2022-11-15T14:07:31;100038.03;;;-2.11;77.94
44198;BME280;30157;55.512;37.764;2022-11-15T14:09:57;99990.63;;;-2.27;77.51
44198;BME280;30157;55.512;37.764;2022-11-15T14:14:54;100019.25;;;-2.13;77.94
44198;BME280;30157;55.512;37.764;2022-11-15T14:19:56;100016.84;;;-2.28;78.47
44198;BME280;30157;55.512;37.764;2022-11-15T14:22:24;100017.94;;;-2.23;78.34
44198;BME280;30157;55.512;37.764;2022-11-15T14:25:16;100022.44;;;-2.17;78.43
44198;BME280;30157;55.512;37.764;2022-11-15T14:27:44;100009.66;;;-2.18;78.39
44198;BME280;30157;55.512;37.764;2022-11-15T14:30:16;99956.66;;;-2.45;78.32
44198;BME280;30157;55.512;37.764;2022-11-15T14:32:49;99949.75;;;-2.48;78.92
44198;BME280;30157;55.512;37.764;2022-11-15T14:35:20;100020.22;;;-2.11;79.06
44198;BME280;30157;55.512;37.764;2022-11-15T14:37:47;100013.97;;;-2.17;79.22
44198;BME280;30157;55.512;37.764;2022-11-15T14:40:18;100006.25;;;-2.19;79.63
44198;BME280;30157;55.512;37.764;2022-11-15T14:42:45;99938.31;;;-2.56;79.75
44198;BME280;30157;55.512;37.764;2022-11-15T14:45:14;99936.34;;;-2.62;79.79
44198;BME280;30157;55.512;37.764;2022-11-15T14:47:41;99957.66;;;-2.60;80.53
44198;BME280;30157;55.512;37.764;2022-11-15T14:50:10;99985.06;;;-2.36;80.34
44198;BME280;30157;55.512;37.764;2022-11-15T14:52:36;99983.56;;;-2.32;80.33
44198;BME280;30157;55.512;37.764;2022-11-15T14:55:10;99977.84;;;-2.28;80.58
44198;BME280;30157;55.512;37.764;2022-11-15T14:57:38;99976.97;;;-2.29;80.42
44198;BME280;30157;55.512;37.764;2022-11-15T15:00:04;99931.19;;;-2.63;80.34
44198;BME280;30157;55.512;37.764;2022-11-15T15:02:40;99975.16;;;-2.48;80.96
44198;BME280;30157;55.512;37.764;2022-11-15T15:07:41;99849.91;;;-3.14;81.05
44198;BME280;30157;55.512;37.764;2022-11-15T15:10:07;99964.88;;;-2.33;81.00
44198;BME280;30157;55.512;37.764;2022-11-15T15:12:33;99897.97;;;-2.84;81.15
44198;BME280;30157;55.512;37.764;2022-11-15T15:14:59;99962.13;;;-2.38;81.24
44198;BME280;30157;55.512;37.764;2022-11-15T15:17:29;99959.06;;;-2.30;80.77
44198;BME280;30157;55.512;37.764;2022-11-15T15:19:55;99956.53;;;-2.30;80.65
44198;BME280;30157;55.512;37.764;2022-11-15T15:22:21;99952.72;;;-2.22;80.64
44198;BME280;30157;55.512;37.764;2022-11-15T15:24:53;99956.13;;;-2.22;80.55
44198;BME280;30157;55.512;37.764;2022-11-15T15:27:20;99916.69;;;-2.48;80.91
44198;BME280;30157;55.512;37.764;2022-11-15T15:29:45;99936.16;;;-2.48;80.68
44198;BME280;30157;55.512;37.764;2022-11-15T15:32:11;99953.25;;;-2.28;81.11
44198;BME280;30157;55.512;37.764;2022-11-15T15:34:38;99941.91;;;-2.34;81.05
44198;BME280;30157;55.512;37.764;2022-11-15T15:37:23;99948.91;;;-2.30;81.24
44198;BME280;30157;55.512;37.764;2022-11-15T15:39:54;99955.22;;;-2.40;81.49
44198;BME280;30157;55.512;37.764;2022-11-15T15:42:20;99927.38;;;-2.55;81.77
44198;BME280;30157;55.512;37.764;2022-11-15T15:44:47;99933.66;;;-2.65;82.27
44198;BME280;30157;55.512;37.764;2022-11-15T15:47:16;99941.31;;;-2.47;82.41
44198;BME280;30157;55.512;37.764;2022-11-15T15:49:42;99911.41;;;-2.53;81.76